sensor_id;sensor_type;location;lat;lon;timestamp;pressure;altitude;pressure_sealevel;temperature;humidity
21664;BME280;10993;52.510;13.456;2023-05-12T00:00:40;56834.13;;;-146.93;37.42
21664;BME280;10993;52.510;13.456;2023-05-12T00:05:40;56777.44;;;-146.93;37.55
21664;BME280;10993;52.510;13.456;2023-05-12T00:10:42;57607.72;;;-146.93;37.45
21664;BME280;10993;52.510;13.456;2023-05-12T00:15:43;56741.00;;;-146.93;37.36
21664;BME280;10993;52.510;13.456;2023-05-12T00:20:44;56741.00;;;-146.93;37.63
21664;BME280;10993;52.510;13.456;2023-05-12T00:25:45;56749.09;;;-146.93;37.82
21664;BME280;10993;52.510;13.456;2023-05-12T00:30:46;56734.91;;;-146.93;37.83
21664;BME280;10993;52.510;13.456;2023-05-12T00:35:46;56702.53;;;-146.93;38.27
21664;BME280;10993;52.510;13.456;2023-05-12T00:40:48;56692.41;;;-146.93;38.38
21664;BME280;10993;52.510;13.456;2023-05-12T00:45:48;56710.63;;;-146.93;38.52
21664;BME280;10993;52.510;13.456;2023-05-12T00:50:49;56668.09;;;-146.93;38.14
21664;BME280;10993;52.510;13.456;2023-05-12T00:55:50;56712.66;;;-146.93;38.17
21664;BME280;10993;52.510;13.456;2023-05-12T01:00:52;56706.56;;;-146.93;38.10
21664;BME280;10993;52.510;13.456;2023-05-12T01:05:56;56706.56;;;-146.93;38.29
21664;BME280;10993;52.510;13.456;2023-05-12T01:11:00;56716.69;;;-146.93;38.18
21664;BME280;10993;52.510;13.456;2023-05-12T01:16:01;56655.94;;;-146.93;38.48
21664;BME280;10993;52.510;13.456;2023-05-12T01:21:03;56655.94;;;-146.93;38.70
21664;BME280;10993;52.510;13.456;2023-05-12T01:26:05;56647.84;;;-146.93;38.79
21664;BME280;10993;52.510;13.456;2023-05-12T01:31:09;56670.13;;;-146.93;38.74
21664;BME280;10993;52.510;13.456;2023-05-12T01:36:09;56613.44;;;-146.93;38.92
21664;BME280;10993;52.510;13.456;2023-05-12T01:41:11;56564.84;;;-146.93;38.86
21664;BME280;10993;52.510;13.456;2023-05-12T01:46:11;56645.81;;;-146.93;39.13
21664;BME280;10993;52.510;13.456;2023-05-12T01:51:12;56660.00;;;-146.93;39.20
21664;BME280;10993;52.510;13.456;2023-05-12T01:56:13;56629.63;;;-146.93;39.51
21664;BME280;10993;52.510;13.456;2023-05-12T02:01:13;56767.31;;;-146.93;39.83
21664;BME280;10993;52.510;13.456;2023-05-12T02:06:14;56591.16;;;-146.93;40.28
21664;BME280;10993;52.510;13.456;2023-05-12T02:11:16;56591.16;;;-146.93;40.53
21664;BME280;10993;52.510;13.456;2023-05-12T02:16:16;56625.59;;;-146.93;40.58
21664;BME280;10993;52.510;13.456;2023-05-12T02:21:16;56566.88;;;-146.93;41.01
21664;BME280;10993;52.510;13.456;2023-05-12T02:26:18;56536.50;;;-146.93;41.28
21664;BME280;10993;52.510;13.456;2023-05-12T02:31:18;56560.78;;;-146.93;41.72
21664;BME280;10993;52.510;13.456;2023-05-12T02:36:19;56489.94;;;-146.93;42.06
21664;BME280;10993;52.510;13.456;2023-05-12T02:41:20;56581.03;;;-146.93;42.21
21664;BME280;10993;52.510;13.456;2023-05-12T02:46:21;56530.41;;;-146.93;42.72
21664;BME280;10993;52.510;13.456;2023-05-12T02:51:22;56483.84;;;-146.93;42.98
21664;BME280;10993;52.510;13.456;2023-05-12T02:56:23;56528.41;;;-146.93;43.28
21664;BME280;10993;52.510;13.456;2023-05-12T03:01:24;56465.63;;;-146.93;43.49
21664;BME280;10993;52.510;13.456;2023-05-12T03:06:24;56572.94;;;-146.93;43.65
21664;BME280;10993;52.510;13.456;2023-05-12T03:11:26;56496.00;;;-146.93;44.38
21664;BME280;10993;52.510;13.456;2023-05-12T03:16:26;56467.66;;;-146.93;44.16
21664;BME280;10993;52.510;13.456;2023-05-12T03:21:27;56518.28;;;-146.93;44.11
21664;BME280;10993;52.510;13.456;2023-05-12T03:26:29;56504.09;;;-146.93;44.04
21664;BME280;10993;52.510;13.456;2023-05-12T03:31:29;56471.72;;;-146.93;44.10
21664;BME280;10993;52.510;13.456;2023-05-12T03:36:30;56449.44;;;-146.93;44.70
21664;BME280;10993;52.510;13.456;2023-05-12T03:41:31;56508.16;;;-146.93;44.41
21664;BME280;10993;52.510;13.456;2023-05-12T03:46:32;56500.06;;;-146.93;44.40
21664;BME280;10993;52.510;13.456;2023-05-12T03:51:32;56496.00;;;-146.93;44.19
21664;BME280;10993;52.510;13.456;2023-05-12T03:56:34;56469.69;;;-146.93;43.75
21664;BME280;10993;52.510;13.456;2023-05-12T04:01:34;56546.63;;;-146.93;43.23
21664;BME280;10993;52.510;13.456;2023-05-12T04:06:35;56607.34;;;-146.93;41.34
21664;BME280;10993;52.510;13.456;2023-05-12T04:11:37;56696.44;;;-146.93;38.94
21664;BME280;10993;52.510;13.456;2023-05-12T04:16:37;56751.13;;;-146.93;37.67
21664;BME280;10993;52.510;13.456;2023-05-12T04:21:39;56830.09;;;-146.93;37.23
21664;BME280;10993;52.510;13.456;2023-05-12T04:26:41;56864.50;;;-146.93;38.55
21664;BME280;10993;52.510;13.456;2023-05-12T04:31:41;56589.13;;;-146.93;40.02
21664;BME280;10993;52.510;13.456;2023-05-12T04:36:42;56568.88;;;-146.93;40.40
21664;BME280;10993;52.510;13.456;2023-05-12T04:41:43;56629.63;;;-146.93;39.70
21664;BME280;10993;52.510;13.456;2023-05-12T04:46:43;56649.88;;;-146.93;39.70
21664;BME280;10993;52.510;13.456;2023-05-12T04:51:44;57182.44;;;-146.93;39.14
21664;BME280;10993;52.510;13.456;2023-05-12T04:56:45;56781.50;;;-146.93;37.37
21664;BME280;10993;52.510;13.456;2023-05-12T05:01:46;56783.50;;;-146.93;37.65
21664;BME280;10993;52.510;13.456;2023-05-12T05:06:46;56828.06;;;-146.93;36.84
21664;BME280;10993;52.510;13.456;2023-05-12T05:11:48;56785.53;;;-146.93;36.69
21664;BME280;10993;52.510;13.456;2023-05-12T05:16:48;56909.06;;;-146.93;35.24
21664;BME280;10993;52.510;13.456;2023-05-12T05:21:48;57190.53;;;-146.93;33.15
21664;BME280;10993;52.510;13.456;2023-05-12T05:26:50;57828.47;;;-146.93;29.44
21664;BME280;10993;52.510;13.456;2023-05-12T05:31:51;58071.56;;;-146.93;27.86
21664;BME280;10993;52.510;13.456;2023-05-12T05:36:51;58035.09;;;-146.93;27.88
21664;BME280;10993;52.510;13.456;2023-05-12T05:41:53;58426.03;;;-146.93;26.49
21664;BME280;10993;52.510;13.456;2023-05-12T05:46:53;58446.31;;;-146.93;26.74
21664;BME280;10993;52.510;13.456;2023-05-12T05:51:54;58450.34;;;-146.93;26.50
21664;BME280;10993;52.510;13.456;2023-05-12T05:56:55;58711.69;;;-146.93;25.56
21664;BME280;10993;52.510;13.456;2023-05-12T06:01:56;58513.16;;;-146.93;26.04
21664;BME280;10993;52.510;13.456;2023-05-12T06:06:57;58602.28;;;-146.93;25.68
21664;BME280;10993;52.510;13.456;2023-05-12T06:11:58;58776.53;;;-146.93;25.54
21664;BME280;10993;52.510;13.456;2023-05-12T06:16:59;58689.41;;;-146.93;25.38
21664;BME280;10993;52.510;13.456;2023-05-12T06:21:59;58902.16;;;-146.93;25.24
21664;BME280;10993;52.510;13.456;2023-05-12T06:27:01;59801.84;;;-146.93;23.64
21664;BME280;10993;52.510;13.456;2023-05-12T06:32:01;60409.88;;;-146.93;22.69
21664;BME280;10993;52.510;13.456;2023-05-12T06:37:01;59491.78;;;-146.93;23.96
21664;BME280;10993;52.510;13.456;2023-05-12T06:42:03;60730.16;;;-146.93;22.12
21664;BME280;10993;52.510;13.456;2023-05-12T06:47:04;60211.25;;;-146.93;22.66
21664;BME280;10993;52.510;13.456;2023-05-12T06:52:05;60207.19;;;-146.93;22.92
21664;BME280;10993;52.510;13.456;2023-05-12T06:57:07;59510.03;;;-146.93;23.37
21664;BME280;10993;52.510;13.456;2023-05-12T07:02:07;60063.28;;;-146.93;22.98
21664;BME280;10993;52.510;13.456;2023-05-12T07:07:07;60134.22;;;-146.93;22.26
21664;BME280;10993;52.510;13.456;2023-05-12T07:12:09;60223.41;;;-146.93;22.16
21664;BME280;10993;52.510;13.456;2023-05-12T07:17:09;60790.97;;;-146.93;22.22
21664;BME280;10993;52.510;13.456;2023-05-12T07:22:10;61486.41;;;-146.93;22.28
21664;BME280;10993;52.510;13.456;2023-05-12T07:27:11;60535.56;;;-146.93;22.68
21664;BME280;10993;52.510;13.456;2023-05-12T07:32:12;60863.97;;;-146.93;22.04
21664;BME280;10993;52.510;13.456;2023-05-12T07:37:12;60393.69;;;-146.93;22.27
21664;BME280;10993;52.510;13.456;2023-05-12T07:42:14;59903.19;;;-146.93;22.91
21664;BME280;10993;52.510;13.456;2023-05-12T07:47:14;60190.97;;;-146.93;22.72
21664;BME280;10993;52.510;13.456;2023-05-12T07:52:14;59966.00;;;-146.93;22.61
21664;BME280;10993;52.510;13.456;2023-05-12T07:57:16;60105.84;;;-146.93;22.61
21664;BME280;10993;52.510;13.456;2023-05-12T08:02:17;60493.00;;;-146.93;21.98
21664;BME280;10993;52.510;13.456;2023-05-12T08:07:17;60444.34;;;-146.93;21.97
21664;BME280;10993;52.510;13.456;2023-05-12T08:12:18;60166.66;;;-146.93;22.49
21664;BME280;10993;52.510;13.456;2023-05-12T08:17:19;60373.41;;;-146.93;22.04
21664;BME280;10993;52.510;13.456;2023-05-12T08:22:19;60555.84;;;-146.93;21.94
21664;BME280;10993;52.510;13.456;2023-05-12T08:27:21;59722.81;;;-146.93;21.94
21664;BME280;10993;52.510;13.456;2023-05-12T08:32:21;58987.25;;;-146.93;23.26
21664;BME280;10993;52.510;13.456;2023-05-12T08:37:22;58810.97;;;-146.93;22.98
21664;BME280;10993;52.510;13.456;2023-05-12T08:42:29;58681.31;;;-146.93;23.24
21664;BME280;10993;52.510;13.456;2023-05-12T08:47:34;58928.47;;;-146.93;23.21
21664;BME280;10993;52.510;13.456;2023-05-12T08:52:35;58845.41;;;-146.93;22.95
21664;BME280;10993;52.510;13.456;2023-05-12T08:57:37;58494.94;;;-146.93;23.12
21664;BME280;10993;52.510;13.456;2023-05-12T09:02:39;58966.97;;;-146.93;22.96
21664;BME280;10993;52.510;13.456;2023-05-12T09:07:42;59084.50;;;-146.93;22.44
21664;BME280;10993;52.510;13.456;2023-05-12T09:12:45;58906.19;;;-146.93;22.36
21664;BME280;10993;52.510;13.456;2023-05-12T09:17:48;58890.00;;;-146.93;22.99
21664;BME280;10993;52.510;13.456;2023-05-12T09:22:49;58871.75;;;-146.93;21.83
21664;BME280;10993;52.510;13.456;2023-05-12T09:27:53;59021.69;;;-146.93;21.38
21664;BME280;10993;52.510;13.456;2023-05-12T09:33:04;58849.47;;;-146.93;21.81
21664;BME280;10993;52.510;13.456;2023-05-12T09:38:05;58954.81;;;-146.93;20.60
21664;BME280;10993;52.510;13.456;2023-05-12T09:43:07;58821.09;;;-146.93;21.78
21664;BME280;10993;52.510;13.456;2023-05-12T09:48:08;58539.50;;;-146.93;21.88
21664;BME280;10993;52.510;13.456;2023-05-12T09:53:10;58979.13;;;-146.93;21.67
21664;BME280;10993;52.510;13.456;2023-05-12T09:58:14;58857.56;;;-146.93;21.28
21664;BME280;10993;52.510;13.456;2023-05-12T10:03:16;58894.03;;;-146.93;21.81
21664;BME280;10993;52.510;13.456;2023-05-12T10:08:23;59076.41;;;-146.93;21.47
21664;BME280;10993;52.510;13.456;2023-05-12T10:13:28;58924.44;;;-146.93;21.97
21664;BME280;10993;52.510;13.456;2023-05-12T10:18:30;59025.75;;;-146.93;21.93
21664;BME280;10993;52.510;13.456;2023-05-12T10:23:33;59274.97;;;-146.93;21.28
21664;BME280;10993;52.510;13.456;2023-05-12T10:28:36;59532.31;;;-146.93;21.09
21664;BME280;10993;52.510;13.456;2023-05-12T10:33:36;59100.72;;;-146.93;21.61
21664;BME280;10993;52.510;13.456;2023-05-12T10:38:38;59137.19;;;-146.93;21.65
21664;BME280;10993;52.510;13.456;2023-05-12T10:43:47;59270.91;;;-146.93;21.12
21664;BME280;10993;52.510;13.456;2023-05-12T10:48:56;59416.81;;;-146.93;21.59
21664;BME280;10993;52.510;13.456;2023-05-12T10:53:58;58821.09;;;-146.93;22.42
21664;BME280;10993;52.510;13.456;2023-05-12T10:59:14;58906.19;;;-146.93;22.80
21664;BME280;10993;52.510;13.456;2023-05-12T11:04:18;59145.28;;;-146.93;21.73
21664;BME280;10993;52.510;13.456;2023-05-12T11:09:21;59455.31;;;-146.93;21.72
21664;BME280;10993;52.510;13.456;2023-05-12T11:14:23;59202.03;;;-146.93;22.07
21664;BME280;10993;52.510;13.456;2023-05-12T11:19:24;58975.09;;;-146.93;22.07
21664;BME280;10993;52.510;13.456;2023-05-12T11:24:24;58843.38;;;-146.93;22.26
21664;BME280;10993;52.510;13.456;2023-05-12T11:29:26;59157.44;;;-146.93;22.08
21664;BME280;10993;52.510;13.456;2023-05-12T11:34:26;58768.44;;;-146.93;22.48
21664;BME280;10993;52.510;13.456;2023-05-12T11:39:28;59133.13;;;-146.93;21.86
21664;BME280;10993;52.510;13.456;2023-05-12T11:44:33;59054.09;;;-146.93;21.67
21664;BME280;10993;52.510;13.456;2023-05-12T11:49:44;59072.34;;;-146.93;21.90
21664;BME280;10993;52.510;13.456;2023-05-12T11:54:47;58667.13;;;-146.93;21.89
21664;BME280;10993;52.510;13.456;2023-05-12T11:59:55;58861.63;;;-146.93;21.97
21664;BME280;10993;52.510;13.456;2023-05-12T12:04:56;59145.28;;;-146.93;22.89
21664;BME280;10993;52.510;13.456;2023-05-12T12:09:57;58144.47;;;-146.93;24.03
21664;BME280;10993;52.510;13.456;2023-05-12T12:14:59;58055.34;;;-146.93;23.81
21664;BME280;10993;52.510;13.456;2023-05-12T12:19:59;57921.66;;;-146.93;24.10
21664;BME280;10993;52.510;13.456;2023-05-12T12:25:00;57781.91;;;-146.93;24.66
21664;BME280;10993;52.510;13.456;2023-05-12T12:30:02;57950.00;;;-146.93;24.55
21664;BME280;10993;52.510;13.456;2023-05-12T12:35:03;57921.66;;;-146.93;24.57
21664;BME280;10993;52.510;13.456;2023-05-12T12:40:06;57836.59;;;-146.93;24.18
21664;BME280;10993;52.510;13.456;2023-05-12T12:45:09;57972.28;;;-146.93;24.36
21664;BME280;10993;52.510;13.456;2023-05-12T12:50:10;57779.88;;;-146.93;24.46
21664;BME280;10993;52.510;13.456;2023-05-12T12:55:10;57945.97;;;-146.93;24.90
21664;BME280;10993;52.510;13.456;2023-05-12T13:00:13;57923.69;;;-146.93;24.77
21664;BME280;10993;52.510;13.456;2023-05-12T13:05:13;57976.34;;;-146.93;23.86
21664;BME280;10993;52.510;13.456;2023-05-12T13:10:14;58004.72;;;-146.93;23.59
21664;BME280;10993;52.510;13.456;2023-05-12T13:15:17;58000.66;;;-146.93;24.14
21664;BME280;10993;52.510;13.456;2023-05-12T13:20:17;57913.56;;;-146.93;23.61
21664;BME280;10993;52.510;13.456;2023-05-12T13:25:18;57856.84;;;-146.93;24.03
21664;BME280;10993;52.510;13.456;2023-05-12T13:30:20;57905.44;;;-146.93;23.67
21664;BME280;10993;52.510;13.456;2023-05-12T13:35:21;57883.19;;;-146.93;23.66
21664;BME280;10993;52.510;13.456;2023-05-12T13:40:22;57824.44;;;-146.93;23.71
21664;BME280;10993;52.510;13.456;2023-05-12T13:45:24;57917.59;;;-146.93;24.00
21664;BME280;10993;52.510;13.456;2023-05-12T13:50:24;57982.41;;;-146.93;24.03
21664;BME280;10993;52.510;13.456;2023-05-12T13:55:25;58008.75;;;-146.93;23.63
21664;BME280;10993;52.510;13.456;2023-05-12T14:00:26;57917.59;;;-146.93;24.11
21664;BME280;10993;52.510;13.456;2023-05-12T14:05:28;57925.72;;;-146.93;24.23
21664;BME280;10993;52.510;13.456;2023-05-12T14:10:29;57994.56;;;-146.93;23.92
21664;BME280;10993;52.510;13.456;2023-05-12T14:15:32;57994.56;;;-146.93;23.64
21664;BME280;10993;52.510;13.456;2023-05-12T14:20:33;57941.91;;;-146.93;23.79
21664;BME280;10993;52.510;13.456;2023-05-12T14:25:33;57895.31;;;-146.93;23.89
21664;BME280;10993;52.510;13.456;2023-05-12T14:30:35;57978.38;;;-146.93;24.33
21664;BME280;10993;52.510;13.456;2023-05-12T14:35:36;58000.66;;;-146.93;24.09
21664;BME280;10993;52.510;13.456;2023-05-12T14:40:36;57996.59;;;-146.93;24.95
21664;BME280;10993;52.510;13.456;2023-05-12T14:45:38;58024.97;;;-146.93;24.68
21664;BME280;10993;52.510;13.456;2023-05-12T14:50:41;57964.19;;;-146.93;24.21
21664;BME280;10993;52.510;13.456;2023-05-12T14:55:41;58002.69;;;-146.93;24.53
21664;BME280;10993;52.510;13.456;2023-05-12T15:00:43;57948.00;;;-146.93;25.02
21664;BME280;10993;52.510;13.456;2023-05-12T15:05:43;57923.69;;;-146.93;24.86
21664;BME280;10993;52.510;13.456;2023-05-12T15:10:44;57933.81;;;-146.93;24.92
21664;BME280;10993;52.510;13.456;2023-05-12T15:15:48;57909.50;;;-146.93;24.75
21664;BME280;10993;52.510;13.456;2023-05-12T15:20:48;57917.59;;;-146.93;24.81
21664;BME280;10993;52.510;13.456;2023-05-12T15:25:49;57950.00;;;-146.93;25.06
21664;BME280;10993;52.510;13.456;2023-05-12T15:30:56;57911.53;;;-146.93;24.86
21664;BME280;10993;52.510;13.456;2023-05-12T15:35:57;57913.56;;;-146.93;24.82
21664;BME280;10993;52.510;13.456;2023-05-12T15:40:57;57915.59;;;-146.93;24.70
21664;BME280;10993;52.510;13.456;2023-05-12T15:45:59;57852.78;;;-146.93;25.04
21664;BME280;10993;52.510;13.456;2023-05-12T15:51:01;57767.72;;;-146.93;25.16
21664;BME280;10993;52.510;13.456;2023-05-12T15:56:02;57745.44;;;-146.93;25.53
21664;BME280;10993;52.510;13.456;2023-05-12T16:01:04;57767.72;;;-146.93;25.44
21664;BME280;10993;52.510;13.456;2023-05-12T16:06:05;57737.34;;;-146.93;25.18
21664;BME280;10993;52.510;13.456;2023-05-12T16:11:06;57785.94;;;-146.93;25.29
21664;BME280;10993;52.510;13.456;2023-05-12T16:16:08;57725.19;;;-146.93;25.17
21664;BME280;10993;52.510;13.456;2023-05-12T16:21:08;57792.03;;;-146.93;25.12
21664;BME280;10993;52.510;13.456;2023-05-12T16:26:09;57792.03;;;-146.93;25.42
21664;BME280;10993;52.510;13.456;2023-05-12T16:31:10;57735.31;;;-146.93;25.49
21664;BME280;10993;52.510;13.456;2023-05-12T16:36:13;57713.03;;;-146.93;25.34
21664;BME280;10993;52.510;13.456;2023-05-12T16:41:13;57715.06;;;-146.93;25.60
21664;BME280;10993;52.510;13.456;2023-05-12T16:46:15;57682.66;;;-146.93;25.40
21664;BME280;10993;52.510;13.456;2023-05-12T16:51:15;57686.72;;;-146.93;25.80
21664;BME280;10993;52.510;13.456;2023-05-12T16:56:16;57678.59;;;-146.93;25.69
21664;BME280;10993;52.510;13.456;2023-05-12T17:01:17;57619.88;;;-146.93;25.67
21664;BME280;10993;52.510;13.456;2023-05-12T17:06:18;57646.19;;;-146.93;25.69
21664;BME280;10993;52.510;13.456;2023-05-12T17:11:18;57640.13;;;-146.93;25.75
21664;BME280;10993;52.510;13.456;2023-05-12T17:16:20;57593.53;;;-146.93;25.73
21664;BME280;10993;52.510;13.456;2023-05-12T17:21:20;57638.09;;;-146.93;25.65
21664;BME280;10993;52.510;13.456;2023-05-12T17:26:21;57613.78;;;-146.93;25.93
21664;BME280;10993;52.510;13.456;2023-05-12T17:31:23;57561.13;;;-146.93;25.89
21664;BME280;10993;52.510;13.456;2023-05-12T17:36:23;57455.81;;;-146.93;26.18
21664;BME280;10993;52.510;13.456;2023-05-12T17:41:23;57555.06;;;-146.93;26.10
21664;BME280;10993;52.510;13.456;2023-05-12T17:46:25;57571.25;;;-146.93;25.84
21664;BME280;10993;52.510;13.456;2023-05-12T17:51:25;57467.97;;;-146.93;26.12
21664;BME280;10993;52.510;13.456;2023-05-12T17:56:27;57480.13;;;-146.93;26.26
21664;BME280;10993;52.510;13.456;2023-05-12T18:01:29;57443.66;;;-146.93;26.24
21664;BME280;10993;52.510;13.456;2023-05-12T18:06:29;57484.19;;;-146.93;26.33
21664;BME280;10993;52.510;13.456;2023-05-12T18:11:31;57445.69;;;-146.93;26.52
21664;BME280;10993;52.510;13.456;2023-05-12T18:16:34;57431.53;;;-146.93;26.68
21664;BME280;10993;52.510;13.456;2023-05-12T18:21:35;57431.53;;;-146.93;26.61
21664;BME280;10993;52.510;13.456;2023-05-12T18:26:35;57285.72;;;-146.93;26.85
21664;BME280;10993;52.510;13.456;2023-05-12T18:31:37;57358.63;;;-146.93;26.70
21664;BME280;10993;52.510;13.456;2023-05-12T18:36:38;57397.09;;;-146.93;26.74
21664;BME280;10993;52.510;13.456;2023-05-12T18:41:38;57297.84;;;-146.93;27.00
21664;BME280;10993;52.510;13.456;2023-05-12T18:46:40;57307.97;;;-146.93;27.09
21664;BME280;10993;52.510;13.456;2023-05-12T18:51:40;57281.66;;;-146.93;27.39
21664;BME280;10993;52.510;13.456;2023-05-12T18:56:40;57216.84;;;-146.93;27.40
21664;BME280;10993;52.510;13.456;2023-05-12T19:01:42;57182.44;;;-146.93;27.79
21664;BME280;10993;52.510;13.456;2023-05-12T19:06:43;57233.06;;;-146.93;27.82
21664;BME280;10993;52.510;13.456;2023-05-12T19:11:43;57243.19;;;-146.93;27.80
21664;BME280;10993;52.510;13.456;2023-05-12T19:16:45;57237.09;;;-146.93;27.76
21664;BME280;10993;52.510;13.456;2023-05-12T19:21:45;57190.53;;;-146.93;28.04
21664;BME280;10993;52.510;13.456;2023-05-12T19:26:46;57083.19;;;-146.93;28.40
21664;BME280;10993;52.510;13.456;2023-05-12T19:31:49;57192.56;;;-146.93;28.58
21664;BME280;10993;52.510;13.456;2023-05-12T19:36:50;57172.31;;;-146.93;28.59
21664;BME280;10993;52.510;13.456;2023-05-12T19:41:50;57172.31;;;-146.93;28.87
21664;BME280;10993;52.510;13.456;2023-05-12T19:46:53;57160.16;;;-146.93;28.93
21664;BME280;10993;52.510;13.456;2023-05-12T19:51:53;57131.81;;;-146.93;29.00
21664;BME280;10993;52.510;13.456;2023-05-12T19:56:54;57113.56;;;-146.93;29.15
21664;BME280;10993;52.510;13.456;2023-05-12T20:01:55;57097.38;;;-146.93;29.33
21664;BME280;10993;52.510;13.456;2023-05-12T20:06:56;57054.84;;;-146.93;29.65
21664;BME280;10993;52.510;13.456;2023-05-12T20:11:56;57058.91;;;-146.93;29.84
21664;BME280;10993;52.510;13.456;2023-05-12T20:16:58;57054.84;;;-146.93;30.02
21664;BME280;10993;52.510;13.456;2023-05-12T20:22:04;57042.69;;;-146.93;30.16
21664;BME280;10993;52.510;13.456;2023-05-12T20:27:05;57034.59;;;-146.93;30.47
21664;BME280;10993;52.510;13.456;2023-05-12T20:32:08;57018.41;;;-146.93;30.49
21664;BME280;10993;52.510;13.456;2023-05-12T20:37:08;56975.88;;;-146.93;30.62
21664;BME280;10993;52.510;13.456;2023-05-12T20:42:09;56850.34;;;-146.93;30.91
21664;BME280;10993;52.510;13.456;2023-05-12T20:47:10;56957.66;;;-146.93;31.06
21664;BME280;10993;52.510;13.456;2023-05-12T20:52:12;56884.75;;;-146.93;31.30
21664;BME280;10993;52.510;13.456;2023-05-12T20:57:12;56935.38;;;-146.93;31.35
21664;BME280;10993;52.510;13.456;2023-05-12T21:02:17;56949.56;;;-146.93;31.53
21664;BME280;10993;52.510;13.456;2023-05-12T21:07:17;56890.84;;;-146.93;31.50
21664;BME280;10993;52.510;13.456;2023-05-12T21:12:18;56957.66;;;-146.93;31.68
21664;BME280;10993;52.510;13.456;2023-05-12T21:17:20;56937.41;;;-146.93;31.72
21664;BME280;10993;52.510;13.456;2023-05-12T21:22:21;56911.09;;;-146.93;31.68
21664;BME280;10993;52.510;13.456;2023-05-12T21:27:21;56937.41;;;-146.93;31.97
21664;BME280;10993;52.510;13.456;2023-05-12T21:32:23;56860.47;;;-146.93;32.26
21664;BME280;10993;52.510;13.456;2023-05-12T21:37:24;56763.28;;;-146.93;32.33
21664;BME280;10993;52.510;13.456;2023-05-12T21:42:24;56846.28;;;-146.93;32.49
21664;BME280;10993;52.510;13.456;2023-05-12T21:47:26;56809.84;;;-146.93;32.60
21664;BME280;10993;52.510;13.456;2023-05-12T21:52:26;56672.16;;;-146.93;32.68
21664;BME280;10993;52.510;13.456;2023-05-12T21:57:27;56799.72;;;-146.93;32.80
21664;BME280;10993;52.510;13.456;2023-05-12T22:02:28;56789.59;;;-146.93;32.82
21664;BME280;10993;52.510;13.456;2023-05-12T22:07:29;56822.00;;;-146.93;33.15
21664;BME280;10993;52.510;13.456;2023-05-12T22:12:31;56830.09;;;-146.93;33.20
21664;BME280;10993;52.510;13.456;2023-05-12T22:17:32;56799.72;;;-146.93;33.34
21664;BME280;10993;52.510;13.456;2023-05-12T22:22:33;56807.81;;;-146.93;33.63
21664;BME280;10993;52.510;13.456;2023-05-12T22:27:33;56785.53;;;-146.93;33.72
21664;BME280;10993;52.510;13.456;2023-05-12T22:32:35;56734.91;;;-146.93;33.80
21664;BME280;10993;52.510;13.456;2023-05-12T22:37:35;56789.59;;;-146.93;33.85
21664;BME280;10993;52.510;13.456;2023-05-12T22:42:36;56765.28;;;-146.93;33.96
21664;BME280;10993;52.510;13.456;2023-05-12T22:47:37;56747.06;;;-146.93;33.97
21664;BME280;10993;52.510;13.456;2023-05-12T22:52:38;56755.16;;;-146.93;34.19
21664;BME280;10993;52.510;13.456;2023-05-12T22:57:38;56787.56;;;-146.93;34.28
21664;BME280;10993;52.510;13.456;2023-05-12T23:02:41;56710.63;;;-146.93;34.23
21664;BME280;10993;52.510;13.456;2023-05-12T23:07:41;56732.91;;;-146.93;34.20
21664;BME280;10993;52.510;13.456;2023-05-12T23:12:42;56676.19;;;-146.93;34.35
21664;BME280;10993;52.510;13.456;2023-05-12T23:17:43;56738.97;;;-146.93;34.33
21664;BME280;10993;52.510;13.456;2023-05-12T23:22:44;56690.38;;;-146.93;34.51
21664;BME280;10993;52.510;13.456;2023-05-12T23:27:44;56736.94;;;-146.93;34.61
21664;BME280;10993;52.510;13.456;2023-05-12T23:32:46;56686.31;;;-146.93;34.61
21664;BME280;10993;52.510;13.456;2023-05-12T23:37:49;56526.38;;;-146.93;34.59
21664;BME280;10993;52.510;13.456;2023-05-12T23:42:49;56706.56;;;-146.93;34.59
21664;BME280;10993;52.510;13.456;2023-05-12T23:47:51;56672.16;;;-146.93;34.71
21664;BME280;10993;52.510;13.456;2023-05-12T23:52:52;56664.06;;;-146.93;34.82
21664;BME280;10993;52.510;13.456;2023-05-12T23:57:52;56664.06;;;-146.93;34.99
